This is the latest recevied weather packets stored in our database for station/object Oberstadn. If no packets are shown the sender has not sent any weather packets the latest 10 day(s).
| Time | Temp. | Humidity | Pressure | Rain* | Wind** | Luminosity | Snow |
|---|---|---|---|---|---|---|---|
| 1777782731 | 3.89° C | 86% | 1016.1 hPa | 0 mm | - | - | - |
| 1777780930 | 3.89° C | 85% | 1016.1 hPa | 0 mm | - | - | - |
| 1777779131 | 4.44° C | 86% | 1016 hPa | 0 mm | - | - | - |
| 1777777331 | 4.44° C | 85% | 1015.9 hPa | 0 mm | - | - | - |
| 1777775531 | 5° C | 84% | 1016 hPa | 0 mm | - | - | - |
| 1777773731 | 5.56° C | 83% | 1016.1 hPa | 0 mm | - | - | - |
| 1777771931 | 5.56° C | 84% | 1016.3 hPa | 0 mm | - | - | - |
| 1777770132 | 5.56° C | 82% | 1016.3 hPa | 0 mm | - | - | - |
| 1777768329 | 6.11° C | 80% | 1016.6 hPa | 0 mm | - | - | - |
| 1777766530 | 6.67° C | 81% | 1016.8 hPa | 0 mm | - | - | - |
| 1777764730 | 6.67° C | 78% | 1016.9 hPa | 0 mm | - | - | - |
| 1777762930 | 7.78° C | 77% | 1017.1 hPa | 0 mm | - | - | - |
| 1777761131 | 7.78° C | 75% | 1017.1 hPa | 0 mm | - | - | - |
| 1777759330 | 8.89° C | 73% | 1017.1 hPa | 0 mm | - | - | - |
| 1777757530 | 10° C | 69% | 1016.9 hPa | 0 mm | - | - | - |
| 1777755729 | 11.11° C | 67% | 1017.1 hPa | 0 mm | - | - | - |
| 1777753930 | 12.22° C | 63% | 1017.2 hPa | 0 mm | - | - | - |
| 1777752130 | 14.44° C | 56% | 1017.4 hPa | 0 mm | - | - | - |
| 1777750335 | 16.11° C | 52% | 1017.4 hPa | 0 mm | - | - | - |
| 1777748537 | 18.33° C | 46% | 1017.2 hPa | 0 mm | - | - | - |
| 1777746730 | 21.11° C | 42% | 1017.1 hPa | 0 mm | - | - | - |
| 1777744931 | 23.33° C | 30% | 1017.1 hPa | 0 mm | - | - | - |
| 1777743130 | 24.44° C | 31% | 1017.2 hPa | 0 mm | - | - | - |
| 1777741330 | 25° C | 28% | 1017.4 hPa | 0 mm | - | - | - |
| 1777739530 | 25.56° C | 24% | 1017.6 hPa | 0 mm | - | - | - |
* Rain since midnight (hover to see other rain measurements)
** Current wind speed in m/s (hover to see current wind gust speed)